createdAt,value
2022-12-01T00:00:54.148Z,98971.56
2022-12-01T00:03:21.125Z,98969.66
2022-12-01T00:05:47.690Z,98972.16
2022-12-01T00:08:14.149Z,98968.38
2022-12-01T00:10:40.527Z,98969.50
2022-12-01T00:13:06.930Z,98970.19
2022-12-01T00:15:36.146Z,98975.91
2022-12-01T00:18:05.434Z,98963.91
2022-12-01T00:20:35.707Z,98969.78
2022-12-01T00:23:02.555Z,98972.44
2022-12-01T00:25:29.469Z,98970.06
2022-12-01T00:27:56.050Z,98973.56
2022-12-01T00:30:22.992Z,98967.50
2022-12-01T00:32:50.260Z,98968.19
2022-12-01T00:35:17.356Z,98966.78
2022-12-01T00:37:43.816Z,98966.41
2022-12-01T00:40:11.063Z,98963.88
2022-12-01T00:42:37.607Z,98961.91
2022-12-01T00:45:04.554Z,98960.94
2022-12-01T00:47:31.030Z,98963.03
2022-12-01T00:49:57.459Z,98967.50
2022-12-01T00:52:23.948Z,98960.50
2022-12-01T00:54:50.413Z,98966.25
2022-12-01T00:57:17.122Z,98960.66
2022-12-01T00:59:45.728Z,98962.44
2022-12-01T01:02:12.231Z,98955.88
2022-12-01T01:04:38.922Z,98955.19
2022-12-01T01:07:05.346Z,98958.13
2022-12-01T01:09:33.374Z,98956.16
2022-12-01T01:11:59.852Z,98956.97
2022-12-01T01:14:27.061Z,98961.22
2022-12-01T01:16:55.099Z,98961.53
2022-12-01T01:19:22.192Z,98950.28
2022-12-01T01:21:48.591Z,98952.97
2022-12-01T01:24:15.514Z,98967.94
2022-12-01T01:26:42.074Z,98965.28
2022-12-01T01:29:08.646Z,98960.22
2022-12-01T01:31:35.067Z,98964.44
2022-12-01T01:34:01.770Z,98964.84
2022-12-01T01:36:28.909Z,98967.38
2022-12-01T01:38:55.703Z,98973.53
2022-12-01T01:41:23.805Z,98970.03
2022-12-01T01:43:51.738Z,98968.91
2022-12-01T01:46:23.825Z,98965.53
2022-12-01T01:49:08.136Z,98965.97
2022-12-01T01:51:53.204Z,98966.97
2022-12-01T01:54:23.805Z,98971.03
2022-12-01T01:56:52.886Z,98969.59
2022-12-01T01:59:24.079Z,98966.38
2022-12-01T02:02:02.956Z,98967.50
2022-12-01T02:04:30.040Z,98964.28
2022-12-01T02:06:56.446Z,98967.38
2022-12-01T02:09:22.868Z,98968.34
2022-12-01T02:12:26.289Z,98967.94
2022-12-01T02:15:22.002Z,98963.75
2022-12-01T02:18:11.799Z,98961.91
2022-12-01T02:20:54.488Z,98954.34
2022-12-01T02:23:35.871Z,98955.03
2022-12-01T02:26:14.597Z,98957.13
2022-12-01T02:28:48.471Z,98956.69
2022-12-01T02:31:21.422Z,98955.47
2022-12-01T02:33:59.056Z,98954.75
2022-12-01T02:36:37.269Z,98949.84
2022-12-01T02:39:10.899Z,98946.78
2022-12-01T02:41:42.890Z,98955.72
2022-12-01T02:44:35.744Z,98949.31
2022-12-01T02:47:15.795Z,98951.13
2022-12-01T02:49:48.611Z,98960.78
2022-12-01T02:52:16.752Z,98959.78
2022-12-01T02:54:45.132Z,98953.78
2022-12-01T02:57:13.456Z,98959.53
2022-12-01T02:59:43.111Z,98961.34
2022-12-01T03:02:20.579Z,98961.47
2022-12-01T03:05:01.378Z,98964.13
2022-12-01T03:07:52.736Z,98961.91
2022-12-01T03:10:25.374Z,98960.88
2022-12-01T03:13:00.825Z,98958.66
2022-12-01T03:15:35.580Z,98956.41
2022-12-01T03:18:20.843Z,98957.50
2022-12-01T03:20:59.239Z,98966.06
2022-12-01T03:23:30.816Z,98956.81
2022-12-01T03:25:59.398Z,98950.06
2022-12-01T03:28:32.990Z,98960.88
2022-12-01T03:31:09.410Z,98953.72
2022-12-01T03:33:43.153Z,98951.63
2022-12-01T03:36:27.252Z,98951.47
2022-12-01T03:39:02.612Z,98956.94
2022-12-01T03:41:35.353Z,98951.91
2022-12-01T03:44:09.514Z,98956.22
2022-12-01T03:46:51.814Z,98957.22
2022-12-01T03:49:19.306Z,98960.84
2022-12-01T03:52:00.643Z,98956.50
2022-12-01T03:54:55.088Z,98956.34
2022-12-01T03:57:29.409Z,98952.00
2022-12-01T03:59:56.467Z,98949.34
2022-12-01T04:02:27.482Z,98956.22
2022-12-01T04:04:54.226Z,98956.50
2022-12-01T04:07:21.202Z,98961.13
2022-12-01T04:09:48.096Z,98965.00
2022-12-01T04:12:30.248Z,98953.41
2022-12-01T04:14:57.912Z,98965.44
2022-12-01T04:17:25.773Z,98963.06
2022-12-01T04:19:52.667Z,98973.50
2022-12-01T04:22:19.641Z,98971.69
2022-12-01T04:24:46.333Z,98967.59
2022-12-01T04:27:12.658Z,98973.50
2022-12-01T04:29:39.056Z,98977.41
2022-12-01T04:32:05.479Z,98973.78
2022-12-01T04:34:31.996Z,98980.91
2022-12-01T04:36:58.427Z,98979.09
2022-12-01T04:39:24.862Z,98980.06
2022-12-01T04:41:51.631Z,98977.25
2022-12-01T04:44:18.106Z,98985.66
2022-12-01T04:46:44.849Z,98989.28
2022-12-01T04:49:11.463Z,98983.09
2022-12-01T04:51:38.023Z,98975.41
2022-12-01T04:54:05.767Z,98982.13
2022-12-01T04:56:33.461Z,98980.72
2022-12-01T04:59:00.852Z,98984.34
2022-12-01T05:01:27.982Z,98973.16
2022-12-01T05:03:54.681Z,98976.34
2022-12-01T05:06:23.028Z,98980.41
2022-12-01T05:08:50.552Z,98979.97
2022-12-01T05:11:19.005Z,98976.34
2022-12-01T05:13:47.098Z,98978.59
2022-12-01T05:16:15.954Z,98984.41
2022-12-01T05:18:43.110Z,98980.22
2022-12-01T05:21:11.053Z,98987.03
2022-12-01T05:23:38.734Z,98989.44
2022-12-01T05:26:07.724Z,98984.94
2022-12-01T05:28:34.299Z,98985.34
2022-12-01T05:31:01.165Z,98986.13
2022-12-01T05:33:29.052Z,98984.03
2022-12-01T05:35:55.931Z,98997.19
2022-12-01T05:38:22.535Z,98990.22
2022-12-01T05:40:49.940Z,98991.38
2022-12-01T05:43:16.913Z,98986.78
2022-12-01T05:45:43.338Z,98986.06
2022-12-01T05:48:09.884Z,98989.69
2022-12-01T05:50:39.309Z,98986.19
2022-12-01T05:53:06.841Z,98994.56
2022-12-01T05:55:36.490Z,98991.44
2022-12-01T05:58:03.043Z,98993.06
2022-12-01T06:00:29.499Z,98997.00
2022-12-01T06:02:55.933Z,98989.41
2022-12-01T06:05:22.464Z,98992.16
2022-12-01T06:07:48.901Z,99004.97
2022-12-01T06:10:15.514Z,99002.38
2022-12-01T06:12:41.920Z,99004.00
2022-12-01T06:15:08.926Z,98999.72
2022-12-01T06:17:39.919Z,99005.28
2022-12-01T06:20:08.210Z,99007.88
2022-12-01T06:22:34.639Z,99004.53
2022-12-01T06:25:01.160Z,99003.81
2022-12-01T06:27:27.578Z,99002.31
2022-12-01T06:29:54.154Z,99005.50
2022-12-01T06:32:20.751Z,99005.75
2022-12-01T06:34:47.175Z,99016.38
2022-12-01T06:37:15.564Z,99011.78
2022-12-01T06:39:42.365Z,99020.72
2022-12-01T06:42:08.823Z,99020.72
2022-12-01T06:44:35.231Z,99026.47
2022-12-01T06:47:01.621Z,99027.00
2022-12-01T06:49:28.086Z,99024.44
2022-12-01T06:51:54.530Z,99033.53
2022-12-01T06:54:21.319Z,99033.88
2022-12-01T06:56:47.698Z,99035.56
2022-12-01T06:59:14.270Z,99038.13
2022-12-01T07:01:41.086Z,99039.09
2022-12-01T07:04:07.495Z,99032.34
2022-12-01T07:06:38.539Z,99033.78
2022-12-01T07:09:05.043Z,99042.31
2022-12-01T07:11:32.246Z,99043.75
2022-12-01T07:13:58.837Z,99043.63
2022-12-01T07:16:25.213Z,99050.16
2022-12-01T07:18:52.547Z,99046.09
2022-12-01T07:21:19.069Z,99041.75
2022-12-01T07:23:45.695Z,99047.16
2022-12-01T07:26:16.042Z,99047.13
2022-12-01T07:28:43.554Z,99060.44
2022-12-01T07:31:13.465Z,99063.44
2022-12-01T07:33:40.099Z,99059.59
2022-12-01T07:36:07.208Z,99067.56
2022-12-01T07:38:34.671Z,99069.00
2022-12-01T07:41:20.232Z,99083.09
2022-12-01T07:43:50.154Z,99078.66
2022-12-01T07:46:23.106Z,99083.75
2022-12-01T07:48:50.620Z,99092.03
2022-12-01T07:51:17.640Z,99085.44
2022-12-01T07:53:46.291Z,99095.81
2022-12-01T07:56:13.376Z,99089.28
2022-12-01T07:58:40.283Z,99095.41
2022-12-01T08:01:14.990Z,99097.34
2022-12-01T08:03:42.399Z,99102.91
2022-12-01T08:06:10.128Z,99098.47
2022-12-01T08:08:39.063Z,99098.22
2022-12-01T08:11:09.620Z,99099.69
2022-12-01T08:13:36.046Z,99101.28
2022-12-01T08:16:07.815Z,99100.41
2022-12-01T08:18:38.877Z,99101.94
2022-12-01T08:21:07.333Z,99102.00
2022-12-01T08:23:34.258Z,99112.44
2022-12-01T08:26:05.260Z,99110.44
2022-12-01T08:28:32.349Z,99105.72
2022-12-01T08:30:58.779Z,99111.00
2022-12-01T08:33:25.582Z,99113.19
2022-12-01T08:35:54.688Z,99102.72
2022-12-01T08:38:21.126Z,99105.97
2022-12-01T08:40:47.672Z,99105.97
2022-12-01T08:43:41.421Z,99100.91
2022-12-01T08:46:01.466Z,99105.72
2022-12-01T08:48:29.949Z,99109.06
2022-12-01T08:51:03.684Z,99106.28
2022-12-01T08:53:31.239Z,99110.50
2022-12-01T08:56:10.628Z,99109.03
2022-12-01T08:58:37.626Z,99116.75
2022-12-01T09:01:07.823Z,99119.19
2022-12-01T09:03:35.251Z,99124.25
2022-12-01T09:06:10.424Z,99117.03
2022-12-01T09:08:37.642Z,99117.03
2022-12-01T09:11:07.815Z,99123.41
2022-12-01T09:13:35.951Z,99128.84
2022-12-01T09:16:08.730Z,99122.31
2022-12-01T09:18:35.309Z,99129.06
2022-12-01T09:21:16.881Z,99117.97
2022-12-01T09:23:43.885Z,99125.09
2022-12-01T09:26:13.568Z,99125.94
2022-12-01T09:28:40.500Z,99127.75
2022-12-01T09:31:09.293Z,99123.28
2022-12-01T09:33:36.602Z,99127.41
2022-12-01T09:36:04.581Z,99123.03
2022-12-01T09:38:32.639Z,99125.91
2022-12-01T09:41:09.078Z,99121.81
2022-12-01T09:43:45.788Z,99118.88
2022-12-01T09:46:18.690Z,99127.44
2022-12-01T09:48:47.131Z,99121.81
2022-12-01T09:51:21.426Z,99123.25
2022-12-01T09:53:56.497Z,99123.50
2022-12-01T09:56:33.539Z,99120.13
2022-12-01T09:59:02.674Z,99122.31
2022-12-01T10:01:47.886Z,99120.84
2022-12-01T10:04:26.411Z,99121.56
2022-12-01T10:07:23.706Z,99121.31
2022-12-01T10:09:57.882Z,99111.78
2022-12-01T10:12:27.746Z,99105.63
2022-12-01T10:15:16.357Z,99096.44
2022-12-01T10:17:58.737Z,99103.69
2022-12-01T10:21:06.593Z,99094.00
2022-12-01T10:23:50.948Z,99093.28
2022-12-01T10:26:17.617Z,99095.94
2022-12-01T10:28:58.048Z,99089.41
2022-12-01T10:31:46.328Z,99090.69
2022-12-01T10:34:35.358Z,99091.28
2022-12-01T10:37:02.704Z,99089.59
2022-12-01T10:39:43.531Z,99087.19
2022-12-01T10:42:32.504Z,99077.84
2022-12-01T10:45:06.998Z,99077.28
2022-12-01T10:47:33.848Z,99072.94
2022-12-01T10:50:00.306Z,99079.34
2022-12-01T10:52:39.359Z,99076.31
2022-12-01T10:55:24.795Z,99076.38
2022-12-01T10:57:53.844Z,99066.00
2022-12-01T11:00:58.169Z,99065.81
2022-12-01T11:03:25.919Z,99059.44
2022-12-01T11:05:57.955Z,99065.94
2022-12-01T11:08:30.556Z,99063.69
2022-12-01T11:10:57.258Z,99062.28
2022-12-01T11:13:28.374Z,99064.97
2022-12-01T11:16:04.247Z,99060.03
2022-12-01T11:18:36.545Z,99059.78
2022-12-01T11:21:12.401Z,99057.25
2022-12-01T11:23:46.349Z,99064.38
2022-12-01T11:26:15.003Z,99055.25
2022-12-01T11:29:00.960Z,99054.59
2022-12-01T11:31:46.101Z,99051.88
2022-12-01T11:34:21.978Z,99047.53
2022-12-01T11:36:52.855Z,99052.44
2022-12-01T11:39:28.146Z,99054.53
2022-12-01T11:41:57.813Z,99048.38
2022-12-01T11:47:23.322Z,99054.91
2022-12-01T11:50:00.279Z,99046.31
2022-12-01T11:52:46.885Z,99046.84
2022-12-01T11:55:13.636Z,99046.31
2022-12-01T11:57:45.742Z,99041.97
2022-12-01T12:00:16.996Z,99047.72
2022-12-01T12:02:55.462Z,99042.75
2022-12-01T12:05:24.789Z,99036.50
2022-12-01T12:08:16.200Z,99043.78
2022-12-01T12:11:07.730Z,99039.88
2022-12-01T12:13:51.538Z,99036.19
2022-12-01T12:16:41.537Z,99033.28
2022-12-01T12:20:06.255Z,99038.44
2022-12-01T12:22:44.026Z,99034.78
2022-12-01T12:25:19.497Z,99031.41
2022-12-01T12:28:23.204Z,99040.72
2022-12-01T12:31:28.470Z,99037.38
2022-12-01T12:34:00.776Z,99024.28
2022-12-01T12:36:33.600Z,99033.59
2022-12-01T12:39:16.951Z,99039.44
2022-12-01T12:41:52.335Z,99028.41
2022-12-01T12:44:41.549Z,99018.78
2022-12-01T12:47:45.800Z,99027.63
2022-12-01T12:50:30.340Z,99024.84
2022-12-01T12:53:03.507Z,99024.00
2022-12-01T12:55:38.380Z,99021.19
2022-12-01T12:58:23.275Z,99023.75
2022-12-01T13:00:56.560Z,99019.06
2022-12-01T13:03:45.370Z,99014.91
2022-12-01T13:06:27.043Z,99015.06
2022-12-01T13:09:09.883Z,99007.09
2022-12-01T13:11:44.908Z,99018.72
2022-12-01T13:14:17.408Z,99021.34
2022-12-01T13:16:47.586Z,99014.72
2022-12-01T13:19:30.779Z,99015.06
2022-12-01T13:21:59.796Z,99011.44
2022-12-01T13:24:29.309Z,99011.69
2022-12-01T13:27:13.127Z,99016.69
2022-12-01T13:29:45.991Z,99011.63
2022-12-01T13:32:42.992Z,99008.44
2022-12-01T13:35:26.912Z,99010.00
2022-12-01T13:38:13.884Z,99008.00
2022-12-01T13:40:43.501Z,99004.97
2022-12-01T13:43:20.690Z,99014.16
2022-12-01T13:45:48.379Z,99011.25
2022-12-01T13:48:48.883Z,99005.75
2022-12-01T13:51:17.282Z,99011.88
2022-12-01T13:54:13.749Z,99013.56
2022-12-01T13:57:00.518Z,99015.59
2022-12-01T13:59:46.159Z,99006.72
2022-12-01T14:02:17.441Z,99011.06
2022-12-01T14:04:44.143Z,99019.03
2022-12-01T14:07:21.923Z,99008.22
2022-12-01T14:09:52.117Z,99011.59
2022-12-01T14:12:29.052Z,99014.56
2022-12-01T14:15:02.716Z,99021.34
2022-12-01T14:17:32.562Z,99020.63
2022-12-01T14:20:14.591Z,99017.69
2022-12-01T14:22:44.337Z,99015.13
2022-12-01T14:25:23.759Z,99012.63
2022-12-01T14:27:56.133Z,99014.16
2022-12-01T14:30:46.532Z,99009.25
2022-12-01T14:33:45.771Z,99004.97
2022-12-01T14:36:24.462Z,99007.56
2022-12-01T14:38:57.344Z,99006.19
2022-12-01T14:41:26.991Z,99006.44
2022-12-01T14:44:04.821Z,99000.94
2022-12-01T14:46:40.471Z,99007.63
2022-12-01T14:49:13.968Z,99008.72
2022-12-01T14:51:45.974Z,99012.50
2022-12-01T14:54:20.229Z,99011.97
2022-12-01T14:56:51.193Z,99008.59
2022-12-01T14:59:24.202Z,99018.97
2022-12-01T15:01:54.771Z,99022.59
2022-12-01T15:04:21.571Z,99022.84
2022-12-01T15:06:54.615Z,99021.63
2022-12-01T15:09:36.972Z,99027.19
2022-12-01T15:12:07.474Z,99016.56
2022-12-01T15:14:48.593Z,99021.28
2022-12-01T15:17:31.163Z,99023.09
2022-12-01T15:19:58.709Z,99018.31
2022-12-01T15:22:30.134Z,99028.06
2022-12-01T15:25:17.049Z,99032.03
2022-12-01T15:27:43.852Z,99026.38
2022-12-01T15:30:17.002Z,99029.25
2022-12-01T15:32:45.661Z,99028.41
2022-12-01T15:35:22.932Z,99033.47
2022-12-01T15:37:51.323Z,99024.53
2022-12-01T15:43:15.073Z,99035.47
2022-12-01T15:46:09.987Z,99033.97
2022-12-01T15:48:37.508Z,99033.28
2022-12-01T15:51:20.061Z,99023.88
2022-12-01T15:53:56.412Z,99027.09
2022-12-01T15:56:34.523Z,99028.47
2022-12-01T15:59:04.616Z,99028.94
2022-12-01T16:01:32.463Z,99026.53
2022-12-01T16:04:04.296Z,99019.47
2022-12-01T16:06:34.615Z,99028.94
2022-12-01T16:09:05.655Z,99033.13
2022-12-01T16:11:33.945Z,99027.75
2022-12-01T16:14:24.694Z,99025.25
2022-12-01T16:16:51.546Z,99037.41
2022-12-01T16:19:18.011Z,99029.94
2022-12-01T16:21:57.680Z,99028.25
2022-12-01T16:24:35.558Z,99021.00
2022-12-01T16:27:15.571Z,99031.31
2022-12-01T16:30:01.544Z,99025.34
2022-12-01T16:32:38.202Z,99030.69
2022-12-01T16:35:26.139Z,99027.34
2022-12-01T16:37:54.243Z,99028.91
2022-12-01T16:40:20.908Z,99033.72
2022-12-01T16:42:48.416Z,99031.06
2022-12-01T16:45:14.960Z,99031.56
2022-12-01T16:47:42.281Z,99031.16
2022-12-01T16:50:13.844Z,99027.44
2022-12-01T16:52:44.996Z,99031.16
2022-12-01T16:55:38.610Z,99028.16
2022-12-01T16:58:05.215Z,99028.75
2022-12-01T17:00:32.355Z,99034.22
2022-12-01T17:02:59.575Z,99030.25
2022-12-01T17:05:26.535Z,99029.28
2022-12-01T17:07:53.604Z,99034.31
2022-12-01T17:10:20.875Z,99036.00
2022-12-01T17:12:47.466Z,99040.13
2022-12-01T17:15:14.574Z,99030.38
2022-12-01T17:17:41.401Z,99026.75
2022-12-01T17:20:08.804Z,99030.50
2022-12-01T17:22:36.012Z,99034.47
2022-12-01T17:25:03.816Z,99037.47
2022-12-01T17:27:31.836Z,99042.69
2022-12-01T17:30:01.649Z,99041.97
2022-12-01T17:32:28.434Z,99033.75
2022-12-01T17:34:54.810Z,99033.34
2022-12-01T17:37:22.082Z,99033.00
2022-12-01T17:39:50.177Z,99037.38
2022-12-01T17:42:16.998Z,99038.91
2022-12-01T17:44:43.486Z,99046.66
2022-12-01T17:47:10.303Z,99048.81
2022-12-01T17:49:37.120Z,99042.47
2022-12-01T17:52:04.875Z,99038.94
2022-12-01T17:54:31.480Z,99045.13
2022-12-01T17:56:58.567Z,99044.16
2022-12-01T17:59:25.261Z,99045.81
2022-12-01T18:01:52.106Z,99039.31
2022-12-01T18:04:18.878Z,99051.25
2022-12-01T18:06:50.669Z,99054.63
2022-12-01T18:09:20.266Z,99060.53
2022-12-01T18:11:46.630Z,99056.31
2022-12-01T18:14:17.127Z,99057.28
2022-12-01T18:16:44.939Z,99058.13
2022-12-01T18:19:11.634Z,99056.31
2022-12-01T18:21:38.687Z,99050.94
2022-12-01T18:24:08.720Z,99055.25
2022-12-01T18:26:36.467Z,99053.31
2022-12-01T18:29:16.426Z,99051.38
2022-12-01T18:31:43.616Z,99049.78
2022-12-01T18:34:11.065Z,99054.53
2022-12-01T18:36:40.477Z,99048.38
2022-12-01T18:39:08.811Z,99049.09
2022-12-01T18:41:36.551Z,99050.94
2022-12-01T18:44:03.875Z,99051.28
2022-12-01T18:46:31.260Z,99038.38
2022-12-01T18:49:00.737Z,99054.41
2022-12-01T18:51:28.715Z,99046.09
2022-12-01T18:53:57.143Z,99048.81
2022-12-01T18:56:24.189Z,99052.09
2022-12-01T18:58:58.698Z,99045.72
2022-12-01T19:01:28.544Z,99040.56
2022-12-01T19:03:55.589Z,99038.22
2022-12-01T19:06:22.553Z,99038.63
2022-12-01T19:08:49.919Z,99038.63
2022-12-01T19:11:16.965Z,99041.03
2022-12-01T19:13:43.910Z,99044.03
2022-12-01T19:16:13.717Z,99039.44
2022-12-01T19:18:40.564Z,99048.63
2022-12-01T19:21:09.875Z,99030.28
2022-12-01T19:23:37.613Z,99033.09
2022-12-01T19:26:11.131Z,99033.47
2022-12-01T19:28:38.147Z,99042.84
2022-12-01T19:31:06.776Z,99038.16
2022-12-01T19:33:33.906Z,99027.78
2022-12-01T19:36:07.419Z,99037.53
2022-12-01T19:38:34.118Z,99039.22
2022-12-01T19:41:00.502Z,99042.97
2022-12-01T19:43:27.595Z,99031.03
2022-12-01T19:45:54.202Z,99034.53
2022-12-01T19:48:21.161Z,99033.47
2022-12-01T19:50:48.104Z,99036.56
2022-12-01T19:53:14.671Z,99036.81
2022-12-01T19:55:41.351Z,99047.81
2022-12-01T19:58:08.301Z,99044.06
2022-12-01T20:00:35.002Z,99055.53
2022-12-01T20:03:01.689Z,99051.06
2022-12-01T20:05:28.141Z,99046.84
2022-12-01T20:07:54.703Z,99054.09
2022-12-01T20:10:21.579Z,99052.84
2022-12-01T20:12:48.190Z,99052.16
2022-12-01T20:15:14.934Z,99057.31
2022-12-01T20:17:43.069Z,99051.41
2022-12-01T20:20:11.339Z,99063.34
2022-12-01T20:22:38.632Z,99058.53
2022-12-01T20:25:06.376Z,99057.56
2022-12-01T20:27:33.055Z,99051.91
2022-12-01T20:29:59.427Z,99050.69
2022-12-01T20:32:26.200Z,99049.97
2022-12-01T20:34:53.372Z,99049.97
2022-12-01T20:37:20.241Z,99054.69
2022-12-01T20:39:47.458Z,99044.94
2022-12-01T20:42:13.927Z,99054.69
2022-12-01T20:44:40.733Z,99052.41
2022-12-01T20:47:07.731Z,99050.22
2022-12-01T20:49:34.370Z,99038.41
2022-12-01T20:52:01.142Z,99038.50
2022-12-01T20:54:30.108Z,99044.78
2022-12-01T20:56:57.867Z,99040.19
2022-12-01T20:59:24.692Z,99045.38
2022-12-01T21:01:51.168Z,99035.06
2022-12-01T21:04:17.866Z,99032.75
2022-12-01T21:06:44.785Z,99030.09
2022-12-01T21:09:13.014Z,99039.06
2022-12-01T21:12:06.954Z,99033.53
2022-12-01T21:14:41.839Z,99026.53
2022-12-01T21:17:28.115Z,99031.16
2022-12-01T21:20:05.226Z,99029.47
2022-12-01T21:22:31.866Z,99026.22
2022-12-01T21:25:10.809Z,99035.38
2022-12-01T21:27:37.545Z,99025.38
2022-12-01T21:30:15.403Z,99030.09
2022-12-01T21:32:44.185Z,99023.00
2022-12-01T21:35:31.369Z,99025.28
2022-12-01T21:38:01.580Z,99023.59
2022-12-01T21:40:28.425Z,99023.25
2022-12-01T21:43:01.114Z,99026.16
2022-12-01T21:45:32.012Z,99026.00
2022-12-01T21:48:06.102Z,99029.63
2022-12-01T21:50:32.744Z,99024.09
2022-12-01T21:52:59.341Z,99028.06
2022-12-01T21:55:26.054Z,99027.13
2022-12-01T21:57:54.162Z,99027.44
2022-12-01T22:00:36.880Z,99025.88
2022-12-01T22:03:09.343Z,99018.91
2022-12-01T22:05:42.226Z,99017.69
2022-12-01T22:08:28.472Z,99020.72
2022-12-01T22:11:18.930Z,99017.56
2022-12-01T22:13:51.718Z,99015.06
2022-12-01T22:16:28.395Z,99016.25
2022-12-01T22:18:57.614Z,99026.00
2022-12-01T22:21:23.977Z,99012.50
2022-12-01T22:24:01.117Z,99016.84
2022-12-01T22:26:27.889Z,99013.94
2022-12-01T22:28:57.904Z,99013.38
2022-12-01T22:31:24.704Z,99009.59
2022-12-01T22:34:03.277Z,99008.88
2022-12-01T22:36:31.773Z,99019.38
2022-12-01T22:38:58.549Z,99019.72
2022-12-01T22:41:26.686Z,99014.91
2022-12-01T22:43:59.549Z,99014.41
2022-12-01T22:46:33.030Z,99001.53
2022-12-01T22:49:10.747Z,99009.13
2022-12-01T22:51:51.557Z,99008.75
2022-12-01T22:54:17.908Z,99009.34
2022-12-01T22:56:47.340Z,99004.53
2022-12-01T22:59:27.701Z,98994.81
2022-12-01T23:01:57.334Z,98998.50
2022-12-01T23:04:31.119Z,99002.84
2022-12-01T23:07:08.504Z,98998.13
2022-12-01T23:09:44.543Z,99000.19
2022-12-01T23:12:10.894Z,99000.69
2022-12-01T23:14:44.790Z,99002.38
2022-12-01T23:17:18.591Z,98997.69
2022-12-01T23:19:45.466Z,99003.34
2022-12-01T23:22:12.430Z,98996.09
2022-12-01T23:24:39.772Z,99006.00
2022-12-01T23:27:07.008Z,98988.38
2022-12-01T23:29:34.488Z,98997.06
2022-12-01T23:32:00.910Z,98993.84
2022-12-01T23:34:28.371Z,98977.53
2022-12-01T23:36:54.972Z,98989.34
2022-12-01T23:39:28.029Z,98975.59
2022-12-01T23:41:54.625Z,98975.50
2022-12-01T23:44:26.610Z,98972.22
2022-12-01T23:46:57.233Z,98968.59
2022-12-01T23:49:30.259Z,98969.09
2022-12-01T23:51:59.036Z,98969.59
2022-12-01T23:54:29.459Z,98972.97
2022-12-01T23:57:00.620Z,98967.63
2022-12-01T23:59:28.158Z,98966.66
